sensor_id;sensor_type;location;lat;lon;timestamp;pressure;altitude;pressure_sealevel;temperature;humidity
64139;BME280;50435;43.700;-79.318;2024-02-26T00:02:20;99446.44;;;4.45;36.81
64139;BME280;50435;43.700;-79.318;2024-02-26T00:04:48;99447.43;;;4.98;36.56
64139;BME280;50435;43.700;-79.318;2024-02-26T00:07:15;99442.28;;;4.59;36.85
64139;BME280;50435;43.700;-79.318;2024-02-26T00:09:42;99437.77;;;4.58;36.89
64139;BME280;50435;43.700;-79.318;2024-02-26T00:12:09;99439.90;;;4.59;37.00
64139;BME280;50435;43.700;-79.318;2024-02-26T00:14:37;99439.29;;;4.66;35.94
64139;BME280;50435;43.700;-79.318;2024-02-26T00:17:05;99440.42;;;4.59;36.54
64139;BME280;50435;43.700;-79.318;2024-02-26T00:19:32;99440.24;;;4.87;36.99
64139;BME280;50435;43.700;-79.318;2024-02-26T00:22:02;99436.93;;;4.86;36.97
64139;BME280;50435;43.700;-79.318;2024-02-26T00:24:30;99440.40;;;4.58;36.81
64139;BME280;50435;43.700;-79.318;2024-02-26T00:26:57;99433.43;;;4.79;36.52
64139;BME280;50435;43.700;-79.318;2024-02-26T00:29:24;99438.45;;;4.59;36.83
64139;BME280;50435;43.700;-79.318;2024-02-26T00:31:51;99442.71;;;4.54;36.67
64139;BME280;50435;43.700;-79.318;2024-02-26T00:34:19;99438.50;;;4.31;36.92
64139;BME280;50435;43.700;-79.318;2024-02-26T00:36:46;99435.43;;;4.53;36.91
64139;BME280;50435;43.700;-79.318;2024-02-26T00:39:14;99441.86;;;4.72;36.86
64139;BME280;50435;43.700;-79.318;2024-02-26T00:41:41;99440.74;;;4.69;36.98
64139;BME280;50435;43.700;-79.318;2024-02-26T00:44:09;99441.54;;;4.67;36.30
64139;BME280;50435;43.700;-79.318;2024-02-26T00:46:36;99445.21;;;4.96;36.46
64139;BME280;50435;43.700;-79.318;2024-02-26T00:49:03;99449.69;;;4.51;36.66
64139;BME280;50435;43.700;-79.318;2024-02-26T00:51:31;99457.40;;;4.42;36.43
64139;BME280;50435;43.700;-79.318;2024-02-26T00:53:59;99457.58;;;4.40;36.57
64139;BME280;50435;43.700;-79.318;2024-02-26T00:56:26;99461.39;;;4.43;37.02
64139;BME280;50435;43.700;-79.318;2024-02-26T00:58:53;99461.53;;;4.41;36.49
64139;BME280;50435;43.700;-79.318;2024-02-26T01:01:21;99468.19;;;4.25;37.03
64139;BME280;50435;43.700;-79.318;2024-02-26T01:03:48;99479.87;;;4.93;36.28
64139;BME280;50435;43.700;-79.318;2024-02-26T01:06:15;99482.87;;;4.94;36.50
64139;BME280;50435;43.700;-79.318;2024-02-26T01:08:43;99497.45;;;4.69;36.87
64139;BME280;50435;43.700;-79.318;2024-02-26T01:11:11;99505.08;;;4.44;36.29
64139;BME280;50435;43.700;-79.318;2024-02-26T01:13:38;99505.70;;;4.37;36.70
64139;BME280;50435;43.700;-79.318;2024-02-26T01:16:05;99507.33;;;4.37;36.43
64139;BME280;50435;43.700;-79.318;2024-02-26T01:18:33;99512.09;;;4.38;36.83
64139;BME280;50435;43.700;-79.318;2024-02-26T01:21:00;99513.05;;;4.34;36.93
64139;BME280;50435;43.700;-79.318;2024-02-26T01:23:28;99514.94;;;4.36;37.26
64139;BME280;50435;43.700;-79.318;2024-02-26T01:25:55;99515.54;;;4.82;36.79
64139;BME280;50435;43.700;-79.318;2024-02-26T01:28:22;99519.81;;;4.34;36.93
64139;BME280;50435;43.700;-79.318;2024-02-26T01:30:50;99527.28;;;4.38;36.68
64139;BME280;50435;43.700;-79.318;2024-02-26T01:33:18;99527.55;;;3.92;36.81
64139;BME280;50435;43.700;-79.318;2024-02-26T01:35:45;99538.59;;;4.33;36.43
64139;BME280;50435;43.700;-79.318;2024-02-26T01:38:12;99542.07;;;4.82;36.84
64139;BME280;50435;43.700;-79.318;2024-02-26T01:40:39;99539.21;;;4.31;36.60
64139;BME280;50435;43.700;-79.318;2024-02-26T01:43:07;99540.67;;;4.44;36.75
64139;BME280;50435;43.700;-79.318;2024-02-26T01:45:34;99542.84;;;4.36;36.57
64139;BME280;50435;43.700;-79.318;2024-02-26T01:48:01;99546.52;;;4.71;36.66
64139;BME280;50435;43.700;-79.318;2024-02-26T01:50:29;99545.49;;;4.47;36.68
64139;BME280;50435;43.700;-79.318;2024-02-26T01:52:57;99546.05;;;4.55;36.46
64139;BME280;50435;43.700;-79.318;2024-02-26T01:55:25;99548.66;;;4.61;36.67
64139;BME280;50435;43.700;-79.318;2024-02-26T01:57:54;99548.56;;;4.85;35.70
64139;BME280;50435;43.700;-79.318;2024-02-26T02:00:22;99547.95;;;4.69;35.07
64139;BME280;50435;43.700;-79.318;2024-02-26T02:02:51;99552.00;;;4.76;35.78
64139;BME280;50435;43.700;-79.318;2024-02-26T02:05:21;99550.27;;;4.08;36.52
64139;BME280;50435;43.700;-79.318;2024-02-26T02:07:49;99548.21;;;4.75;36.47
64139;BME280;50435;43.700;-79.318;2024-02-26T02:10:17;99545.51;;;4.29;35.57
64139;BME280;50435;43.700;-79.318;2024-02-26T02:12:44;99545.37;;;4.87;35.55
64139;BME280;50435;43.700;-79.318;2024-02-26T02:15:11;99544.39;;;4.73;35.93
64139;BME280;50435;43.700;-79.318;2024-02-26T02:17:39;99547.88;;;4.69;36.03
64139;BME280;50435;43.700;-79.318;2024-02-26T02:20:09;99548.60;;;4.61;35.47
64139;BME280;50435;43.700;-79.318;2024-02-26T02:22:36;99546.58;;;4.61;36.47
64139;BME280;50435;43.700;-79.318;2024-02-26T02:25:04;99543.84;;;4.86;36.43
64139;BME280;50435;43.700;-79.318;2024-02-26T02:27:32;99542.05;;;4.54;36.68
64139;BME280;50435;43.700;-79.318;2024-02-26T02:30:00;99546.51;;;4.51;36.23
64139;BME280;50435;43.700;-79.318;2024-02-26T02:32:29;99549.51;;;4.53;36.51
64139;BME280;50435;43.700;-79.318;2024-02-26T02:34:57;99556.16;;;4.52;36.25
64139;BME280;50435;43.700;-79.318;2024-02-26T02:37:25;99555.01;;;4.49;36.64
64139;BME280;50435;43.700;-79.318;2024-02-26T02:39:52;99561.14;;;4.44;36.76
64139;BME280;50435;43.700;-79.318;2024-02-26T02:42:20;99559.99;;;4.24;36.81
64139;BME280;50435;43.700;-79.318;2024-02-26T02:44:47;99565.19;;;4.68;36.43
64139;BME280;50435;43.700;-79.318;2024-02-26T02:47:15;99566.27;;;4.56;36.27
64139;BME280;50435;43.700;-79.318;2024-02-26T02:49:43;99565.36;;;4.76;36.51
64139;BME280;50435;43.700;-79.318;2024-02-26T02:52:10;99561.65;;;4.50;35.47
64139;BME280;50435;43.700;-79.318;2024-02-26T02:54:37;99564.09;;;5.10;36.74
64139;BME280;50435;43.700;-79.318;2024-02-26T02:57:05;99564.17;;;5.19;36.24
64139;BME280;50435;43.700;-79.318;2024-02-26T02:59:33;99560.11;;;4.65;37.03
64139;BME280;50435;43.700;-79.318;2024-02-26T03:02:00;99561.93;;;4.86;35.91
64139;BME280;50435;43.700;-79.318;2024-02-26T03:04:27;99552.73;;;4.81;36.36
64139;BME280;50435;43.700;-79.318;2024-02-26T03:06:55;99554.93;;;5.19;35.71
64139;BME280;50435;43.700;-79.318;2024-02-26T03:09:23;99549.95;;;4.88;36.00
64139;BME280;50435;43.700;-79.318;2024-02-26T03:11:50;99552.24;;;4.94;36.37
64139;BME280;50435;43.700;-79.318;2024-02-26T03:14:17;99548.32;;;4.65;36.90
64139;BME280;50435;43.700;-79.318;2024-02-26T03:16:44;99553.37;;;5.11;35.75
64139;BME280;50435;43.700;-79.318;2024-02-26T03:19:14;99550.81;;;5.44;35.36
64139;BME280;50435;43.700;-79.318;2024-02-26T03:21:42;99552.64;;;5.12;35.45
64139;BME280;50435;43.700;-79.318;2024-02-26T03:24:10;99550.88;;;5.05;36.60
64139;BME280;50435;43.700;-79.318;2024-02-26T03:26:38;99550.07;;;5.20;35.95
64139;BME280;50435;43.700;-79.318;2024-02-26T03:29:05;99549.91;;;5.24;36.12
64139;BME280;50435;43.700;-79.318;2024-02-26T03:31:32;99552.67;;;5.31;36.93
64139;BME280;50435;43.700;-79.318;2024-02-26T03:33:59;99550.39;;;5.35;35.41
64139;BME280;50435;43.700;-79.318;2024-02-26T03:36:27;99553.85;;;5.28;37.00
64139;BME280;50435;43.700;-79.318;2024-02-26T03:38:55;99553.50;;;5.30;36.49
64139;BME280;50435;43.700;-79.318;2024-02-26T03:41:22;99553.20;;;5.16;35.53
64139;BME280;50435;43.700;-79.318;2024-02-26T03:43:49;99552.17;;;5.34;36.20
64139;BME280;50435;43.700;-79.318;2024-02-26T03:46:16;99551.14;;;4.91;36.09
64139;BME280;50435;43.700;-79.318;2024-02-26T03:48:44;99550.13;;;5.29;36.83
64139;BME280;50435;43.700;-79.318;2024-02-26T03:51:11;99550.17;;;5.28;36.33
64139;BME280;50435;43.700;-79.318;2024-02-26T03:53:38;99550.40;;;5.31;36.02
64139;BME280;50435;43.700;-79.318;2024-02-26T03:56:07;99549.05;;;5.26;36.75
64139;BME280;50435;43.700;-79.318;2024-02-26T03:58:35;99550.45;;;5.29;36.69
64139;BME280;50435;43.700;-79.318;2024-02-26T04:01:02;99551.77;;;5.23;36.69
64139;BME280;50435;43.700;-79.318;2024-02-26T04:03:30;99550.36;;;4.96;36.92
64139;BME280;50435;43.700;-79.318;2024-02-26T04:05:57;99545.10;;;5.23;37.06
64139;BME280;50435;43.700;-79.318;2024-02-26T04:08:24;99548.28;;;5.15;37.03
64139;BME280;50435;43.700;-79.318;2024-02-26T04:10:52;99546.27;;;5.11;37.55
64139;BME280;50435;43.700;-79.318;2024-02-26T04:13:20;99545.92;;;4.85;37.38
64139;BME280;50435;43.700;-79.318;2024-02-26T04:15:47;99545.36;;;5.10;37.20
64139;BME280;50435;43.700;-79.318;2024-02-26T04:18:15;99550.02;;;5.06;37.73
64139;BME280;50435;43.700;-79.318;2024-02-26T04:20:42;99552.62;;;5.11;37.49
64139;BME280;50435;43.700;-79.318;2024-02-26T04:23:09;99549.72;;;5.05;37.68
64139;BME280;50435;43.700;-79.318;2024-02-26T04:25:37;99550.86;;;4.99;37.80
64139;BME280;50435;43.700;-79.318;2024-02-26T04:28:05;99550.80;;;4.98;37.90
64139;BME280;50435;43.700;-79.318;2024-02-26T04:30:32;99548.69;;;4.93;37.84
64139;BME280;50435;43.700;-79.318;2024-02-26T04:33:00;99550.70;;;4.91;37.94
64139;BME280;50435;43.700;-79.318;2024-02-26T04:35:28;99553.99;;;4.89;37.91
64139;BME280;50435;43.700;-79.318;2024-02-26T04:37:56;99555.39;;;4.86;37.98
64139;BME280;50435;43.700;-79.318;2024-02-26T04:40:23;99560.07;;;4.88;37.92
64139;BME280;50435;43.700;-79.318;2024-02-26T04:42:50;99562.92;;;4.80;38.15
64139;BME280;50435;43.700;-79.318;2024-02-26T04:45:18;99559.67;;;4.30;38.13
64139;BME280;50435;43.700;-79.318;2024-02-26T04:47:45;99565.55;;;4.88;38.31
64139;BME280;50435;43.700;-79.318;2024-02-26T04:50:13;99568.49;;;4.53;38.35
64139;BME280;50435;43.700;-79.318;2024-02-26T04:52:41;99568.50;;;4.48;38.49
64139;BME280;50435;43.700;-79.318;2024-02-26T04:55:09;99571.08;;;4.35;38.60
64139;BME280;50435;43.700;-79.318;2024-02-26T04:57:37;99571.42;;;4.79;38.58
64139;BME280;50435;43.700;-79.318;2024-02-26T05:00:05;99578.78;;;4.69;38.71
64139;BME280;50435;43.700;-79.318;2024-02-26T05:02:33;99580.09;;;4.18;38.68
64139;BME280;50435;43.700;-79.318;2024-02-26T05:05:01;99579.81;;;4.37;38.73
64139;BME280;50435;43.700;-79.318;2024-02-26T05:07:28;99582.58;;;4.32;38.79
64139;BME280;50435;43.700;-79.318;2024-02-26T05:09:55;99581.47;;;4.31;38.81
64139;BME280;50435;43.700;-79.318;2024-02-26T05:12:23;99579.03;;;4.40;38.93
64139;BME280;50435;43.700;-79.318;2024-02-26T05:14:50;99581.85;;;4.11;39.08
64139;BME280;50435;43.700;-79.318;2024-02-26T05:17:17;99581.98;;;3.62;39.07
64139;BME280;50435;43.700;-79.318;2024-02-26T05:19:44;99587.25;;;4.40;38.92
64139;BME280;50435;43.700;-79.318;2024-02-26T05:22:12;99589.82;;;4.31;39.06
64139;BME280;50435;43.700;-79.318;2024-02-26T05:24:39;99589.38;;;3.66;39.25
64139;BME280;50435;43.700;-79.318;2024-02-26T05:27:07;99591.01;;;4.14;39.23
64139;BME280;50435;43.700;-79.318;2024-02-26T05:29:34;99592.92;;;4.11;39.24
64139;BME280;50435;43.700;-79.318;2024-02-26T05:32:02;99593.83;;;4.09;39.28
64139;BME280;50435;43.700;-79.318;2024-02-26T05:34:29;99595.34;;;4.02;39.37
64139;BME280;50435;43.700;-79.318;2024-02-26T05:36:57;99590.97;;;4.04;39.35
64139;BME280;50435;43.700;-79.318;2024-02-26T05:39:24;99592.81;;;3.76;39.45
64139;BME280;50435;43.700;-79.318;2024-02-26T05:41:52;99601.24;;;3.97;39.47
64139;BME280;50435;43.700;-79.318;2024-02-26T05:44:22;99600.77;;;3.48;39.46
64139;BME280;50435;43.700;-79.318;2024-02-26T05:46:50;99603.23;;;3.96;39.49
64139;BME280;50435;43.700;-79.318;2024-02-26T05:49:17;99602.15;;;3.49;39.50
64139;BME280;50435;43.700;-79.318;2024-02-26T05:51:44;99605.31;;;3.88;39.57
64139;BME280;50435;43.700;-79.318;2024-02-26T05:54:12;99603.78;;;3.90;39.56
64139;BME280;50435;43.700;-79.318;2024-02-26T05:56:39;99603.24;;;3.63;39.69
64139;BME280;50435;43.700;-79.318;2024-02-26T05:59:07;99606.71;;;3.83;39.67
64139;BME280;50435;43.700;-79.318;2024-02-26T06:01:34;99610.72;;;3.83;39.67
64139;BME280;50435;43.700;-79.318;2024-02-26T06:04:02;99612.94;;;3.81;39.69
64139;BME280;50435;43.700;-79.318;2024-02-26T06:06:29;99613.59;;;3.71;39.80
64139;BME280;50435;43.700;-79.318;2024-02-26T06:08:56;99622.05;;;3.75;39.76
64139;BME280;50435;43.700;-79.318;2024-02-26T06:11:24;99623.60;;;3.40;39.88
64139;BME280;50435;43.700;-79.318;2024-02-26T06:13:52;99619.66;;;3.87;39.83
64139;BME280;50435;43.700;-79.318;2024-02-26T06:16:20;99616.66;;;3.15;39.83
64139;BME280;50435;43.700;-79.318;2024-02-26T06:18:47;99618.84;;;3.60;39.84
64139;BME280;50435;43.700;-79.318;2024-02-26T06:21:15;99620.99;;;3.54;39.87
64139;BME280;50435;43.700;-79.318;2024-02-26T06:23:42;99615.88;;;3.51;39.90
64139;BME280;50435;43.700;-79.318;2024-02-26T06:26:09;99606.97;;;3.76;39.80
64139;BME280;50435;43.700;-79.318;2024-02-26T06:28:36;99602.84;;;3.66;39.95
64139;BME280;50435;43.700;-79.318;2024-02-26T06:31:04;99593.36;;;3.39;40.01
64139;BME280;50435;43.700;-79.318;2024-02-26T06:33:32;99586.55;;;3.63;40.01
64139;BME280;50435;43.700;-79.318;2024-02-26T06:35:59;99581.76;;;3.58;39.98
64139;BME280;50435;43.700;-79.318;2024-02-26T06:38:27;99583.16;;;3.33;39.98
64139;BME280;50435;43.700;-79.318;2024-02-26T06:40:54;99594.02;;;3.37;39.97
64139;BME280;50435;43.700;-79.318;2024-02-26T06:43:22;99601.80;;;2.83;40.01
64139;BME280;50435;43.700;-79.318;2024-02-26T06:45:50;99602.54;;;3.18;40.14
64139;BME280;50435;43.700;-79.318;2024-02-26T06:48:17;99611.76;;;2.70;40.14
64139;BME280;50435;43.700;-79.318;2024-02-26T06:50:44;99615.35;;;3.44;40.09
64139;BME280;50435;43.700;-79.318;2024-02-26T06:53:12;99612.38;;;3.59;40.21
64139;BME280;50435;43.700;-79.318;2024-02-26T06:55:39;99603.54;;;3.32;40.23
64139;BME280;50435;43.700;-79.318;2024-02-26T06:58:07;99611.22;;;3.32;40.21
64139;BME280;50435;43.700;-79.318;2024-02-26T07:00:35;99610.90;;;3.04;40.26
64139;BME280;50435;43.700;-79.318;2024-02-26T07:03:02;99613.78;;;3.11;40.18
64139;BME280;50435;43.700;-79.318;2024-02-26T07:05:30;99613.77;;;3.26;40.25
64139;BME280;50435;43.700;-79.318;2024-02-26T07:07:57;99611.40;;;3.20;40.34
64139;BME280;50435;43.700;-79.318;2024-02-26T07:10:24;99609.64;;;2.90;40.48
64139;BME280;50435;43.700;-79.318;2024-02-26T07:12:52;99617.98;;;3.13;40.43
64139;BME280;50435;43.700;-79.318;2024-02-26T07:15:19;99619.14;;;2.84;40.53
64139;BME280;50435;43.700;-79.318;2024-02-26T07:17:46;99613.02;;;3.07;40.50
64139;BME280;50435;43.700;-79.318;2024-02-26T07:20:14;99612.88;;;3.37;40.50
64139;BME280;50435;43.700;-79.318;2024-02-26T07:22:41;99612.94;;;3.06;40.53
64139;BME280;50435;43.700;-79.318;2024-02-26T07:25:09;99617.42;;;3.35;40.50
64139;BME280;50435;43.700;-79.318;2024-02-26T07:27:37;99617.68;;;3.01;40.54
64139;BME280;50435;43.700;-79.318;2024-02-26T07:30:05;99621.56;;;3.24;40.61
64139;BME280;50435;43.700;-79.318;2024-02-26T07:32:33;99620.30;;;2.98;40.60
64139;BME280;50435;43.700;-79.318;2024-02-26T07:35:00;99614.31;;;3.32;40.43
64139;BME280;50435;43.700;-79.318;2024-02-26T07:37:28;99616.84;;;3.23;40.52
64139;BME280;50435;43.700;-79.318;2024-02-26T07:39:56;99621.36;;;3.26;40.49
64139;BME280;50435;43.700;-79.318;2024-02-26T07:42:24;99622.12;;;2.51;40.52
64139;BME280;50435;43.700;-79.318;2024-02-26T07:44:51;99622.80;;;2.96;40.47
64139;BME280;50435;43.700;-79.318;2024-02-26T07:47:19;99615.92;;;2.26;40.49
64139;BME280;50435;43.700;-79.318;2024-02-26T07:49:47;99615.36;;;2.94;40.51
64139;BME280;50435;43.700;-79.318;2024-02-26T07:52:14;99616.91;;;3.09;40.61
64139;BME280;50435;43.700;-79.318;2024-02-26T07:54:42;99617.26;;;3.07;40.63
64139;BME280;50435;43.700;-79.318;2024-02-26T07:57:09;99619.00;;;3.04;40.62
64139;BME280;50435;43.700;-79.318;2024-02-26T07:59:37;99622.89;;;2.76;40.71
64139;BME280;50435;43.700;-79.318;2024-02-26T08:02:04;99623.27;;;3.06;40.66
64139;BME280;50435;43.700;-79.318;2024-02-26T08:04:32;99624.15;;;2.73;40.69
64139;BME280;50435;43.700;-79.318;2024-02-26T08:07:00;99630.71;;;2.99;40.67
64139;BME280;50435;43.700;-79.318;2024-02-26T08:09:27;99635.44;;;2.73;40.66
64139;BME280;50435;43.700;-79.318;2024-02-26T08:11:54;99636.23;;;2.99;40.67
64139;BME280;50435;43.700;-79.318;2024-02-26T08:14:21;99636.40;;;2.42;40.76
64139;BME280;50435;43.700;-79.318;2024-02-26T08:16:48;99639.22;;;2.94;40.74
64139;BME280;50435;43.700;-79.318;2024-02-26T08:19:16;99647.61;;;2.45;40.73
64139;BME280;50435;43.700;-79.318;2024-02-26T08:21:44;99639.14;;;2.68;40.68
64139;BME280;50435;43.700;-79.318;2024-02-26T08:24:11;99638.94;;;2.85;40.78
64139;BME280;50435;43.700;-79.318;2024-02-26T08:26:39;99639.63;;;2.85;40.82
64139;BME280;50435;43.700;-79.318;2024-02-26T08:29:06;99642.21;;;2.82;40.83
64139;BME280;50435;43.700;-79.318;2024-02-26T08:31:33;99642.98;;;2.47;40.97
64139;BME280;50435;43.700;-79.318;2024-02-26T08:34:01;99644.47;;;2.76;40.94
64139;BME280;50435;43.700;-79.318;2024-02-26T08:36:28;99648.34;;;2.65;41.08
64139;BME280;50435;43.700;-79.318;2024-02-26T08:38:56;99648.37;;;2.62;41.10
64139;BME280;50435;43.700;-79.318;2024-02-26T08:41:23;99645.43;;;2.29;41.19
64139;BME280;50435;43.700;-79.318;2024-02-26T08:43:50;99656.36;;;2.60;41.17
64139;BME280;50435;43.700;-79.318;2024-02-26T08:46:18;99663.24;;;1.83;41.33
64139;BME280;50435;43.700;-79.318;2024-02-26T08:48:45;99661.31;;;2.41;41.54
64139;BME280;50435;43.700;-79.318;2024-02-26T08:51:13;99660.79;;;2.44;41.49
64139;BME280;50435;43.700;-79.318;2024-02-26T08:53:40;99669.09;;;2.27;41.72
64139;BME280;50435;43.700;-79.318;2024-02-26T08:56:07;99667.21;;;2.28;41.68
64139;BME280;50435;43.700;-79.318;2024-02-26T08:58:35;99673.77;;;2.27;41.77
64139;BME280;50435;43.700;-79.318;2024-02-26T09:01:02;99682.03;;;1.88;41.90
64139;BME280;50435;43.700;-79.318;2024-02-26T09:03:30;99688.21;;;2.10;42.00
64139;BME280;50435;43.700;-79.318;2024-02-26T09:05:57;99691.10;;;2.06;41.99
64139;BME280;50435;43.700;-79.318;2024-02-26T09:08:24;99695.88;;;2.01;42.08
64139;BME280;50435;43.700;-79.318;2024-02-26T09:10:51;99701.05;;;1.91;42.13
64139;BME280;50435;43.700;-79.318;2024-02-26T09:13:19;99701.34;;;1.61;42.24
64139;BME280;50435;43.700;-79.318;2024-02-26T09:15:46;99716.77;;;1.95;42.16
64139;BME280;50435;43.700;-79.318;2024-02-26T09:18:13;99724.01;;;2.12;42.17
64139;BME280;50435;43.700;-79.318;2024-02-26T09:20:41;99724.08;;;2.29;42.31
64139;BME280;50435;43.700;-79.318;2024-02-26T09:23:09;99719.53;;;2.30;42.29
64139;BME280;50435;43.700;-79.318;2024-02-26T09:25:36;99720.87;;;2.26;42.35
64139;BME280;50435;43.700;-79.318;2024-02-26T09:28:04;99729.67;;;1.86;42.21
64139;BME280;50435;43.700;-79.318;2024-02-26T09:30:32;99734.17;;;1.76;42.19
64139;BME280;50435;43.700;-79.318;2024-02-26T09:33:00;99739.30;;;1.76;42.18
64139;BME280;50435;43.700;-79.318;2024-02-26T09:35:27;99733.45;;;1.84;42.12
64139;BME280;50435;43.700;-79.318;2024-02-26T09:37:54;99729.00;;;2.09;42.43
64139;BME280;50435;43.700;-79.318;2024-02-26T09:40:22;99733.62;;;1.68;42.35
64139;BME280;50435;43.700;-79.318;2024-02-26T09:42:53;99731.79;;;1.61;42.42
64139;BME280;50435;43.700;-79.318;2024-02-26T09:45:26;99731.19;;;1.59;42.43
64139;BME280;50435;43.700;-79.318;2024-02-26T09:47:56;99727.08;;;1.77;42.42
64139;BME280;50435;43.700;-79.318;2024-02-26T09:50:23;99723.88;;;1.58;42.35
64139;BME280;50435;43.700;-79.318;2024-02-26T09:52:52;99725.84;;;1.35;42.41
64139;BME280;50435;43.700;-79.318;2024-02-26T09:55:19;99725.73;;;1.39;42.38
64139;BME280;50435;43.700;-79.318;2024-02-26T09:57:47;99727.48;;;1.99;42.27
64139;BME280;50435;43.700;-79.318;2024-02-26T10:00:17;99727.74;;;1.84;42.49
64139;BME280;50435;43.700;-79.318;2024-02-26T10:02:46;99726.17;;;2.01;42.47
64139;BME280;50435;43.700;-79.318;2024-02-26T10:05:17;99728.52;;;1.82;42.34
64139;BME280;50435;43.700;-79.318;2024-02-26T10:07:46;99732.50;;;1.20;42.45
64139;BME280;50435;43.700;-79.318;2024-02-26T10:10:14;99736.53;;;1.77;42.24
64139;BME280;50435;43.700;-79.318;2024-02-26T10:12:41;99738.80;;;1.92;41.98
64139;BME280;50435;43.700;-79.318;2024-02-26T10:15:09;99742.79;;;1.74;42.29
64139;BME280;50435;43.700;-79.318;2024-02-26T10:17:38;99755.31;;;1.53;42.77
64139;BME280;50435;43.700;-79.318;2024-02-26T10:20:14;99756.09;;;1.59;42.64
64139;BME280;50435;43.700;-79.318;2024-02-26T10:22:43;99763.50;;;1.60;42.53
64139;BME280;50435;43.700;-79.318;2024-02-26T10:25:10;99758.24;;;1.54;42.64
64139;BME280;50435;43.700;-79.318;2024-02-26T10:27:40;99751.63;;;1.70;42.43
64139;BME280;50435;43.700;-79.318;2024-02-26T10:30:16;99752.66;;;1.72;42.35
64139;BME280;50435;43.700;-79.318;2024-02-26T10:32:45;99760.26;;;1.58;42.59
64139;BME280;50435;43.700;-79.318;2024-02-26T10:35:13;99771.76;;;1.55;42.80
64139;BME280;50435;43.700;-79.318;2024-02-26T10:37:40;99776.62;;;1.11;43.23
64139;BME280;50435;43.700;-79.318;2024-02-26T10:40:11;99783.55;;;1.34;43.28
64139;BME280;50435;43.700;-79.318;2024-02-26T10:42:38;99787.62;;;1.33;43.28
64139;BME280;50435;43.700;-79.318;2024-02-26T10:45:06;99794.76;;;1.34;43.38
64139;BME280;50435;43.700;-79.318;2024-02-26T10:47:34;99797.86;;;1.28;43.61
64139;BME280;50435;43.700;-79.318;2024-02-26T10:50:03;99801.05;;;1.23;43.67
64139;BME280;50435;43.700;-79.318;2024-02-26T10:52:32;99791.06;;;1.02;43.61
64139;BME280;50435;43.700;-79.318;2024-02-26T10:55:02;99806.12;;;1.20;43.72
64139;BME280;50435;43.700;-79.318;2024-02-26T10:57:33;99803.46;;;1.21;43.86
64139;BME280;50435;43.700;-79.318;2024-02-26T11:00:02;99809.88;;;1.45;43.79
64139;BME280;50435;43.700;-79.318;2024-02-26T11:02:31;99818.83;;;1.21;43.80
64139;BME280;50435;43.700;-79.318;2024-02-26T11:05:00;99820.71;;;1.21;43.82
64139;BME280;50435;43.700;-79.318;2024-02-26T11:07:30;99829.35;;;1.23;43.81
64139;BME280;50435;43.700;-79.318;2024-02-26T11:09:59;99834.95;;;1.21;43.76
64139;BME280;50435;43.700;-79.318;2024-02-26T11:12:29;99844.75;;;1.11;43.72
64139;BME280;50435;43.700;-79.318;2024-02-26T11:14:57;99844.72;;;1.00;44.04
64139;BME280;50435;43.700;-79.318;2024-02-26T11:17:27;99857.04;;;0.49;43.98
64139;BME280;50435;43.700;-79.318;2024-02-26T11:19:56;99858.44;;;0.88;43.86
64139;BME280;50435;43.700;-79.318;2024-02-26T11:22:24;99854.07;;;0.98;43.98
64139;BME280;50435;43.700;-79.318;2024-02-26T11:24:52;99853.89;;;1.02;43.73
64139;BME280;50435;43.700;-79.318;2024-02-26T11:27:23;99860.39;;;0.27;43.38
64139;BME280;50435;43.700;-79.318;2024-02-26T11:29:52;99868.88;;;1.41;43.04
64139;BME280;50435;43.700;-79.318;2024-02-26T11:32:21;99877.06;;;0.91;43.49
64139;BME280;50435;43.700;-79.318;2024-02-26T11:34:48;99884.42;;;1.00;43.43
64139;BME280;50435;43.700;-79.318;2024-02-26T11:37:17;99892.39;;;1.27;43.01
64139;BME280;50435;43.700;-79.318;2024-02-26T11:39:46;99896.31;;;1.27;43.07
64139;BME280;50435;43.700;-79.318;2024-02-26T11:42:15;99902.82;;;1.33;42.89
64139;BME280;50435;43.700;-79.318;2024-02-26T11:44:42;99907.53;;;1.32;42.84
64139;BME280;50435;43.700;-79.318;2024-02-26T11:47:11;99919.22;;;1.52;42.83
64139;BME280;50435;43.700;-79.318;2024-02-26T11:49:39;99921.65;;;1.11;43.11
64139;BME280;50435;43.700;-79.318;2024-02-26T11:52:08;99924.74;;;1.00;43.29
64139;BME280;50435;43.700;-79.318;2024-02-26T11:54:44;99931.19;;;0.95;43.27
64139;BME280;50435;43.700;-79.318;2024-02-26T11:57:28;99938.00;;;0.67;43.65
64139;BME280;50435;43.700;-79.318;2024-02-26T11:59:56;99947.04;;;1.03;43.91
64139;BME280;50435;43.700;-79.318;2024-02-26T12:02:45;99959.95;;;0.76;43.62
64139;BME280;50435;43.700;-79.318;2024-02-26T12:05:15;99970.65;;;0.63;43.82
64139;BME280;50435;43.700;-79.318;2024-02-26T12:07:46;99969.99;;;0.94;43.87
64139;BME280;50435;43.700;-79.318;2024-02-26T12:10:16;99972.68;;;1.06;43.78
64139;BME280;50435;43.700;-79.318;2024-02-26T12:12:45;99969.84;;;0.66;43.74
64139;BME280;50435;43.700;-79.318;2024-02-26T12:15:15;99969.14;;;0.94;43.60
64139;BME280;50435;43.700;-79.318;2024-02-26T12:17:48;99974.61;;;0.78;43.72
64139;BME280;50435;43.700;-79.318;2024-02-26T12:20:17;99988.23;;;1.07;43.71
64139;BME280;50435;43.700;-79.318;2024-02-26T12:22:46;99998.64;;;0.81;43.76
64139;BME280;50435;43.700;-79.318;2024-02-26T12:25:13;100005.49;;;0.52;43.82
64139;BME280;50435;43.700;-79.318;2024-02-26T12:27:41;100011.43;;;0.42;43.89
64139;BME280;50435;43.700;-79.318;2024-02-26T12:30:09;100013.58;;;0.46;43.86
64139;BME280;50435;43.700;-79.318;2024-02-26T12:32:37;100021.51;;;0.61;44.00
64139;BME280;50435;43.700;-79.318;2024-02-26T12:35:06;100026.78;;;0.74;43.86
64139;BME280;50435;43.700;-79.318;2024-02-26T12:37:34;100024.07;;;0.37;44.01
64139;BME280;50435;43.700;-79.318;2024-02-26T12:40:01;100028.56;;;0.67;43.90
64139;BME280;50435;43.700;-79.318;2024-02-26T12:42:29;100030.29;;;0.60;43.78
64139;BME280;50435;43.700;-79.318;2024-02-26T12:44:57;100038.20;;;0.96;43.85
64139;BME280;50435;43.700;-79.318;2024-02-26T12:47:25;100044.29;;;0.81;43.34
64139;BME280;50435;43.700;-79.318;2024-02-26T12:49:52;100041.74;;;0.84;43.42
64139;BME280;50435;43.700;-79.318;2024-02-26T12:52:20;100045.71;;;0.59;43.35
64139;BME280;50435;43.700;-79.318;2024-02-26T12:54:47;100050.56;;;0.69;43.77